Time;durP1;ratioP1;P1;durP2;ratioP2;P2;SDS_P1;SDS_P2;PMS_P1;PMS_P2;Temp;Humidity;BMP_temperature;BMP_pressure;BME280_temperature;BME280_humidity;BME280_pressure;Samples;Min_cycle;Max_cycle;Signal;HPM_P1;HPM_P2
2024/05/06 00:00:39;;;;;;;12.25;7.97;;;;;;;11.95;100.00;100951.31;5394705;25;93922;-83
2024/05/06 00:03:05;;;;;;;11.63;7.82;;;;;;;12.14;100.00;100973.28;5429923;25;96619;-83
2024/05/06 00:05:30;;;;;;;13.63;7.93;;;;;;;12.15;100.00;100980.28;5429108;25;95039;-80
2024/05/06 00:07:56;;;;;;;12.10;7.95;;;;;;;12.11;100.00;100969.94;5405275;25;93816;-81
2024/05/06 00:10:21;;;;;;;15.63;8.23;;;;;;;12.01;100.00;100948.38;5399902;25;94015;-80
2024/05/06 00:12:46;;;;;;;11.93;7.93;;;;;;;12.13;100.00;100961.00;5436617;25;94513;-80
2024/05/06 00:15:14;;;;;;;11.52;7.22;;;;;;;12.15;100.00;100974.16;5439940;25;94657;-79
2024/05/06 00:17:39;;;;;;;14.27;8.20;;;;;;;12.01;100.00;100940.47;5432401;25;93831;-79
2024/05/06 00:20:05;;;;;;;13.20;8.18;;;;;;;12.15;100.00;100956.53;5402419;25;93931;-81
2024/05/06 00:22:30;;;;;;;10.90;7.55;;;;;;;12.13;100.00;100950.44;5395698;25;94614;-81
2024/05/06 00:24:55;;;;;;;12.45;7.93;;;;;;;12.16;100.00;100963.50;5401547;25;108848;-79
2024/05/06 00:27:21;;;;;;;12.23;7.78;;;;;;;12.12;100.00;100961.09;5422047;25;93767;-80
2024/05/06 00:29:46;;;;;;;11.85;7.38;;;;;;;11.99;100.00;100934.41;5431289;25;93877;-80
2024/05/06 00:32:11;;;;;;;21.42;8.40;;;;;;;12.03;100.00;100948.31;5400676;25;95031;-80
2024/05/06 00:34:37;;;;;;;12.13;8.10;;;;;;;12.07;100.00;100960.44;5421751;25;94676;-80
2024/05/06 00:37:02;;;;;;;12.35;7.40;;;;;;;12.03;100.00;100958.88;5398243;25;94805;-80
2024/05/06 00:39:28;;;;;;;10.88;7.32;;;;;;;11.99;100.00;100958.16;5417385;25;94069;-81
2024/05/06 00:41:53;;;;;;;11.45;7.30;;;;;;;11.96;100.00;100953.03;5392717;25;94438;-80
2024/05/06 00:44:18;;;;;;;12.45;8.20;;;;;;;11.92;100.00;100951.47;5396274;25;94622;-81
2024/05/06 00:46:44;;;;;;;12.00;7.82;;;;;;;11.91;100.00;100950.59;5391515;25;94963;-80
2024/05/06 00:49:12;;;;;;;10.60;7.55;;;;;;;11.88;100.00;100947.25;5399053;25;94004;-80
2024/05/06 00:51:38;;;;;;;12.50;8.00;;;;;;;11.72;100.00;100923.31;5396195;25;96512;-80
2024/05/06 00:54:05;;;;;;;13.63;7.68;;;;;;;11.82;100.00;100952.78;5425042;25;94942;-81
2024/05/06 00:56:32;;;;;;;11.65;7.53;;;;;;;11.77;100.00;100949.50;5424396;25;93766;-81
2024/05/06 00:58:59;;;;;;;10.90;7.18;;;;;;;11.61;100.00;100930.88;5399542;25;94135;-81
2024/05/06 01:01:25;;;;;;;12.00;8.13;;;;;;;11.71;100.00;100951.47;5422654;25;95512;-80
2024/05/06 01:03:51;;;;;;;13.77;8.25;;;;;;;11.72;100.00;100947.03;5399249;25;96761;-81
2024/05/06 01:06:16;;;;;;;12.63;8.13;;;;;;;11.65;100.00;100933.31;5427716;25;93880;-80
2024/05/06 01:08:42;;;;;;;11.23;7.60;;;;;;;11.54;100.00;100921.53;5393961;25;94847;-80
2024/05/06 01:11:09;;;;;;;13.75;8.15;;;;;;;11.65;100.00;100943.84;5426721;25;94890;-81
2024/05/06 01:13:34;;;;;;;11.88;7.55;;;;;;;11.38;100.00;100902.91;5394791;25;94702;-81
2024/05/06 01:16:00;;;;;;;10.55;7.88;;;;;;;11.55;100.00;100932.00;5426789;25;93913;-83
2024/05/06 01:18:25;;;;;;;11.05;7.82;;;;;;;11.41;100.00;100908.88;5422438;25;94039;-83
2024/05/06 01:21:04;;;;;;;11.65;7.82;;;;;;;11.49;100.00;100924.34;5391254;25;94567;-83
2024/05/06 01:23:31;;;;;;;13.15;7.63;;;;;;;11.41;100.00;100914.16;5389141;25;94645;-83
2024/05/06 01:25:59;;;;;;;11.93;7.10;;;;;;;11.52;100.00;100937.41;5425164;25;93757;-83
2024/05/06 01:28:24;;;;;;;13.75;8.05;;;;;;;11.44;100.00;100923.72;5421722;25;93891;-83
2024/05/06 01:30:50;;;;;;;12.18;7.57;;;;;;;11.28;100.00;100906.88;5428475;25;94795;-83
2024/05/06 01:33:15;;;;;;;13.07;8.65;;;;;;;11.27;100.00;100907.81;5391501;25;94720;-83
2024/05/06 01:35:40;;;;;;;12.75;7.93;;;;;;;11.43;100.00;100932.56;5391257;25;93778;-82
2024/05/06 01:38:06;;;;;;;13.35;8.25;;;;;;;11.43;100.00;100930.78;5393514;25;94007;-83
2024/05/06 01:40:34;;;;;;;12.70;7.72;;;;;;;11.46;100.00;100929.78;5394990;25;94564;-82
2024/05/06 01:42:59;;;;;;;14.45;7.88;;;;;;;11.44;100.00;100929.84;5362477;25;94497;-83
2024/05/06 01:45:25;;;;;;;12.15;8.18;;;;;;;11.41;100.00;100914.16;5394231;25;93761;-82
2024/05/06 01:47:53;;;;;;;11.88;8.57;;;;;;;11.48;100.00;100926.13;5393680;25;93944;-82
2024/05/06 01:50:19;;;;;;;12.02;7.80;;;;;;;11.51;100.00;100919.03;5426919;25;95562;-82
2024/05/06 01:52:44;;;;;;;12.45;7.47;;;;;;;11.53;100.00;100918.03;5390067;25;94791;-82
2024/05/06 01:55:10;;;;;;;14.05;8.00;;;;;;;11.52;100.00;100918.09;5390006;26;93939;-82
2024/05/06 01:57:35;;;;;;;13.07;8.35;;;;;;;11.50;100.00;100910.28;5390569;26;93996;-82
2024/05/06 02:00:01;;;;;;;11.15;7.18;;;;;;;11.57;100.00;100905.53;5387029;26;96704;-82
2024/05/06 02:02:26;;;;;;;12.43;7.95;;;;;;;11.55;100.00;100896.88;5387607;26;94342;-82
2024/05/06 02:04:51;;;;;;;11.18;7.93;;;;;;;11.52;100.00;100892.56;5384537;26;93999;-82
2024/05/06 02:07:17;;;;;;;12.32;8.10;;;;;;;11.56;100.00;100901.22;5390450;26;93830;-82
2024/05/06 02:09:42;;;;;;;10.82;7.40;;;;;;;11.57;100.00;100902.91;5390501;26;94677;-82
2024/05/06 02:12:08;;;;;;;15.00;8.15;;;;;;;11.56;100.00;100898.56;5393624;26;94357;-82
2024/05/06 02:14:35;;;;;;;11.70;8.30;;;;;;;11.54;100.00;100903.06;5385464;26;94529;-82
2024/05/06 02:17:00;;;;;;;13.27;7.60;;;;;;;11.40;100.00;100890.50;5382439;26;94900;-82
2024/05/06 02:19:25;;;;;;;13.60;8.43;;;;;;;11.44;100.00;100895.56;5388196;26;95046;-83
2024/05/06 02:21:52;;;;;;;9.60;7.22;;;;;;;11.50;100.00;100899.72;5385743;26;94946;-82
2024/05/06 02:24:17;;;;;;;19.88;7.65;;;;;;;11.37;100.00;100877.47;5382255;26;93927;-82
2024/05/06 02:26:43;;;;;;;12.70;8.25;;;;;;;11.50;100.00;100899.72;5385676;26;94070;-79
2024/05/06 02:29:08;;;;;;;11.90;8.23;;;;;;;11.45;100.00;100892.03;5389600;26;96309;-80
2024/05/06 02:31:33;;;;;;;15.80;8.90;;;;;;;11.48;100.00;100897.13;5383415;25;94596;-80
2024/05/06 02:33:59;;;;;;;14.85;9.10;;;;;;;11.42;100.00;100878.13;5381223;26;94003;-80
2024/05/06 02:36:24;;;;;;;12.95;8.60;;;;;;;11.29;100.00;100855.88;5380725;26;94628;-80
2024/05/06 02:38:50;;;;;;;14.80;8.00;;;;;;;11.42;100.00;100881.63;5381768;26;96478;-80
2024/05/06 02:41:17;;;;;;;15.27;8.27;;;;;;;11.44;100.00;100890.28;5391455;26;94634;-80
2024/05/06 02:43:45;;;;;;;14.20;8.30;;;;;;;11.43;100.00;100885.09;5384020;26;94140;-80
2024/05/06 02:46:11;;;;;;;12.93;8.82;;;;;;;11.41;100.00;100895.69;5383039;26;93868;-80
2024/05/06 02:48:40;;;;;;;13.65;8.30;;;;;;;11.31;100.00;100880.38;5386465;26;94612;-80
2024/05/06 02:51:09;;;;;;;13.02;8.77;;;;;;;11.12;100.00;100851.34;5408887;25;96596;-80
2024/05/06 02:53:35;;;;;;;12.63;8.55;;;;;;;11.29;100.00;100884.84;5383648;26;94465;-80
2024/05/06 02:56:00;;;;;;;13.05;8.32;;;;;;;11.28;100.00;100886.63;5378005;26;94788;-80
2024/05/06 02:58:29;;;;;;;12.60;8.73;;;;;;;11.06;100.00;100859.53;5387715;26;94156;-79
2024/05/06 03:00:54;;;;;;;12.98;8.48;;;;;;;11.07;100.00;100869.13;5387605;26;94743;-80
2024/05/06 03:03:21;;;;;;;14.00;9.50;;;;;;;11.20;100.00;100886.13;5389787;25;93820;-80
2024/05/06 03:05:47;;;;;;;13.15;8.85;;;;;;;11.09;100.00;100872.56;5384212;26;94523;-80
2024/05/06 03:08:13;;;;;;;13.48;8.85;;;;;;;11.13;100.00;100882.91;5386426;26;96278;-80
2024/05/06 03:10:38;;;;;;;12.38;8.40;;;;;;;10.93;100.00;100846.03;5386091;26;95014;-81
2024/05/06 03:13:06;;;;;;;12.65;8.73;;;;;;;11.09;100.00;100875.19;5383289;26;93895;-81
2024/05/06 03:15:31;;;;;;;13.80;8.77;;;;;;;11.13;100.00;100890.81;5383549;26;94018;-80
2024/05/06 03:17:57;;;;;;;16.02;9.27;;;;;;;11.12;100.00;100885.63;5384643;26;94569;-80
2024/05/06 03:20:25;;;;;;;13.05;8.90;;;;;;;10.97;100.00;100859.00;5385093;26;97117;-81
2024/05/06 03:22:50;;;;;;;14.45;9.30;;;;;;;11.11;100.00;100887.41;5388795;26;93822;-81
2024/05/06 03:25:16;;;;;;;17.63;9.32;;;;;;;11.05;100.00;100882.38;5399036;26;93967;-80
2024/05/06 03:27:41;;;;;;;13.20;8.80;;;;;;;11.09;100.00;100880.47;5387019;26;96575;-81
2024/05/06 03:30:07;;;;;;;15.25;8.90;;;;;;;11.13;100.00;100887.31;5396559;25;94330;-81
2024/05/06 03:32:32;;;;;;;15.35;8.80;;;;;;;11.08;100.00;100873.50;5396527;25;93743;-80
2024/05/06 03:34:59;;;;;;;15.75;9.93;;;;;;;10.93;100.00;100844.25;5395955;26;94384;-79
2024/05/06 03:37:25;;;;;;;13.80;9.20;;;;;;;11.13;100.00;100872.34;5407151;26;94801;-80
2024/05/06 03:39:50;;;;;;;14.50;9.30;;;;;;;11.06;100.00;100856.88;5399200;26;95553;-80
2024/05/06 03:42:18;;;;;;;15.00;9.68;;;;;;;11.17;100.00;100876.56;5406526;26;93786;-80
2024/05/06 03:44:44;;;;;;;14.52;9.55;;;;;;;11.01;100.00;100846.56;5400922;25;94044;-80
2024/05/06 03:47:09;;;;;;;14.40;9.05;;;;;;;11.13;100.00;100871.50;5392718;25;95466;-80
2024/05/06 03:49:34;;;;;;;13.65;8.27;;;;;;;11.07;100.00;100867.38;5394070;26;94955;-80
2024/05/06 03:52:00;;;;;;;14.38;8.82;;;;;;;10.99;100.00;100865.09;5386866;26;93737;-80
2024/05/06 03:54:25;;;;;;;14.73;8.98;;;;;;;11.10;100.00;100882.19;5381671;25;93970;-79
2024/05/06 03:56:50;;;;;;;15.05;9.63;;;;;;;11.07;100.00;100888.47;5389435;25;97282;-79
2024/05/06 03:59:16;;;;;;;16.80;9.20;;;;;;;11.05;100.00;100898.19;5432244;25;94473;-79
2024/05/06 04:01:41;;;;;;;11.82;8.30;;;;;;;10.91;100.00;100876.84;5388804;25;93700;-79
2024/05/06 04:04:07;;;;;;;16.70;9.77;;;;;;;11.05;100.00;100899.97;5420150;25;93949;-79
2024/05/06 04:06:33;;;;;;;14.85;9.55;;;;;;;11.01;100.00;100891.34;5421409;25;95473;-80
2024/05/06 04:08:59;;;;;;;15.85;10.20;;;;;;;11.06;100.00;100896.41;5396349;25;97841;-80
2024/05/06 04:11:24;;;;;;;14.27;9.25;;;;;;;11.02;100.00;100887.78;5383802;25;94749;-80
2024/05/06 04:13:50;;;;;;;15.55;10.15;;;;;;;10.93;100.00;100875.03;5401948;25;93932;-79
2024/05/06 04:16:15;;;;;;;18.50;10.20;;;;;;;11.05;100.00;100886.81;5393544;25;96433;-79
2024/05/06 04:18:40;;;;;;;14.40;9.15;;;;;;;10.96;100.00;100878.38;5427198;25;94630;-79
2024/05/06 04:21:09;;;;;;;18.33;10.50;;;;;;;11.09;100.00;100891.88;5393280;25;93760;-80
2024/05/06 04:29:04;;;;;;;14.73;9.80;;;;;;;11.20;100.00;100897.53;5429094;25;94918;-79
2024/05/06 04:31:29;;;;;;;15.55;10.02;;;;;;;11.07;100.00;100880.56;5427323;25;93824;-79
2024/05/06 04:33:56;;;;;;;18.15;10.05;;;;;;;11.22;100.00;100903.59;5396734;25;93857;-79
2024/05/06 04:36:21;;;;;;;20.95;10.65;;;;;;;11.24;100.00;100901.72;5423643;25;94386;-79
2024/05/06 04:38:47;;;;;;;19.65;11.05;;;;;;;11.23;100.00;100893.91;5428614;25;95907;-80
2024/05/06 04:41:12;;;;;;;16.17;9.88;;;;;;;11.05;100.00;100866.56;5423119;25;94560;-79
2024/05/06 04:43:38;;;;;;;15.20;10.75;;;;;;;11.07;100.00;100864.75;5392845;25;94827;-79
2024/05/06 04:46:03;;;;;;;15.95;9.75;;;;;;;11.25;100.00;100899.94;5426121;25;94108;-82
2024/05/06 04:48:28;;;;;;;15.27;9.48;;;;;;;11.27;100.00;100903.38;5392696;25;96963;-82
2024/05/06 04:50:54;;;;;;;14.98;9.05;;;;;;;11.28;100.00;100904.25;5395804;25;106158;-82
2024/05/06 04:53:19;;;;;;;21.85;11.02;;;;;;;11.28;100.00;100901.59;5422654;25;94549;-82
2024/05/06 04:55:46;;;;;;;15.55;10.02;;;;;;;11.14;100.00;100876.69;5385281;26;94728;-82
2024/05/06 04:58:11;;;;;;;17.33;10.48;;;;;;;11.05;100.00;100852.56;5391266;26;95022;-83
2024/05/06 05:00:36;;;;;;;14.77;9.50;;;;;;;11.19;100.00;100872.09;5386716;26;93838;-82
2024/05/06 05:03:02;;;;;;;17.55;10.48;;;;;;;11.41;100.00;100902.75;5388711;26;94546;-82
2024/05/06 05:05:27;;;;;;;16.90;11.23;;;;;;;11.29;100.00;100885.72;5386720;26;94342;-82
2024/05/06 05:07:52;;;;;;;18.35;10.88;;;;;;;11.42;100.00;100909.75;5387486;25;94472;-82
2024/05/06 05:10:19;;;;;;;21.98;10.02;;;;;;;11.37;100.00;100891.47;5384102;25;93824;-82
2024/05/06 05:12:44;;;;;;;17.63;10.57;;;;;;;11.57;100.00;100905.53;5386531;26;93964;-82
2024/05/06 05:15:10;;;;;;;17.90;9.93;;;;;;;11.62;100.00;100906.22;5387214;25;95990;-82
2024/05/06 05:17:35;;;;;;;13.57;8.88;;;;;;;11.64;100.00;100907.84;5388650;26;97370;-82
2024/05/06 05:20:01;;;;;;;15.20;10.20;;;;;;;11.72;100.00;100910.13;5393364;25;93832;-82
2024/05/06 05:22:26;;;;;;;16.45;9.68;;;;;;;11.55;100.00;100870.50;5385823;26;94826;-81
2024/05/06 05:24:52;;;;;;;17.73;10.52;;;;;;;11.78;100.00;100901.09;5389000;26;94442;-82
2024/05/06 05:27:17;;;;;;;15.73;9.75;;;;;;;11.87;100.00;100905.94;5388618;26;94374;-82
2024/05/06 05:29:44;;;;;;;14.13;9.60;;;;;;;11.93;100.00;100906.53;5387631;26;93794;-82
2024/05/06 05:32:11;;;;;;;16.15;9.50;;;;;;;11.97;100.00;100913.38;5386380;26;93993;-82
2024/05/06 05:34:37;;;;;;;16.17;9.38;;;;;;;12.01;100.00;100898.25;5390887;26;94514;-82
2024/05/06 05:37:02;;;;;;;14.18;9.90;;;;;;;12.06;100.00;100893.59;5388574;26;95299;-82
2024/05/06 05:39:28;;;;;;;13.68;9.18;;;;;;;12.10;100.00;100896.94;5386846;26;94175;-82
2024/05/06 05:41:56;;;;;;;15.77;9.82;;;;;;;12.22;100.00;100901.63;5393270;26;93777;-82
2024/05/06 05:44:22;;;;;;;14.80;9.63;;;;;;;12.29;100.00;100902.22;5385952;26;94426;-82
2024/05/06 05:46:47;;;;;;;17.92;10.20;;;;;;;12.34;100.00;100910.78;5387472;26;96838;-82
2024/05/06 05:49:12;;;;;;;17.42;10.32;;;;;;;12.37;100.00;100906.16;5385546;26;94872;-82
2024/05/06 05:51:38;;;;;;;15.02;9.65;;;;;;;12.24;100.00;100878.69;5383097;26;94059;-82
2024/05/06 05:54:03;;;;;;;17.35;10.27;;;;;;;12.29;100.00;100884.56;5385103;26;94234;-82
2024/05/06 05:56:29;;;;;;;13.93;9.20;;;;;;;12.42;100.00;100909.47;5420429;25;96654;-79
2024/05/06 05:58:54;;;;;;;14.90;10.15;;;;;;;12.49;100.00;100917.06;5395509;25;93991;-80
2024/05/06 06:01:20;;;;;;;15.48;10.00;;;;;;;12.41;100.00;100899.84;5392903;25;93963;-79
2024/05/06 06:03:45;;;;;;;16.30;10.00;;;;;;;12.38;100.00;100897.34;5389152;25;94386;-80
2024/05/06 06:06:11;;;;;;;15.45;9.45;;;;;;;12.25;100.00;100880.38;5421252;25;95712;-80
2024/05/06 06:08:36;;;;;;;15.68;10.00;;;;;;;12.40;100.00;100898.09;5427840;25;93798;-80
2024/05/06 06:11:01;;;;;;;17.13;9.98;;;;;;;12.31;100.00;100890.66;5427573;25;93930;-80
2024/05/06 06:13:27;;;;;;;18.85;10.77;;;;;;;12.34;100.00;100884.38;5396163;25;94343;-80
2024/05/06 06:15:52;;;;;;;15.23;9.98;;;;;;;12.37;100.00;100890.34;5429431;25;95356;-79
2024/05/06 06:18:17;;;;;;;16.23;9.55;;;;;;;12.38;100.00;100888.56;5399837;25;93938;-79
2024/05/06 06:20:43;;;;;;;17.15;10.45;;;;;;;12.52;100.00;100898.44;5395185;25;95532;-79
2024/05/06 06:23:08;;;;;;;17.95;10.68;;;;;;;12.60;100.00;100918.25;5420373;25;101201;-79
2024/05/06 06:25:33;;;;;;;15.55;9.60;;;;;;;12.61;100.00;100913.84;5402258;25;94620;-80
2024/05/06 06:27:59;;;;;;;17.30;10.25;;;;;;;12.46;100.00;100886.41;5395246;25;93825;-80
2024/05/06 06:30:27;;;;;;;18.60;10.25;;;;;;;12.59;100.00;100913.91;5395003;25;93930;-79
2024/05/06 06:32:53;;;;;;;12.63;8.77;;;;;;;12.64;100.00;100913.66;5423555;25;94767;-79
2024/05/06 06:35:18;;;;;;;17.80;10.80;;;;;;;12.61;100.00;100903.28;5427821;25;95514;-80
2024/05/06 06:37:44;;;;;;;15.95;9.65;;;;;;;12.45;100.00;100875.00;5388875;25;93802;-79
2024/05/06 06:40:10;;;;;;;15.20;9.15;;;;;;;12.62;100.00;100891.78;5424847;25;93941;-80
2024/05/06 06:42:35;;;;;;;15.80;9.65;;;;;;;12.82;100.00;100912.75;5415768;25;95526;-80
2024/05/06 06:45:02;;;;;;;14.68;9.13;;;;;;;12.88;100.00;100916.88;5396349;25;94661;-80
2024/05/06 06:47:27;;;;;;;15.75;9.43;;;;;;;12.92;100.00;100916.66;5419992;25;94026;-80
2024/05/06 06:49:52;;;;;;;16.85;9.95;;;;;;;12.86;100.00;100898.44;5388971;25;95026;-79
2024/05/06 06:52:18;;;;;;;15.70;9.90;;;;;;;13.03;100.00;100921.38;5390077;25;94632;-80
2024/05/06 06:54:43;;;;;;;15.27;9.52;;;;;;;13.02;100.00;100906.44;5425032;25;96156;-80
2024/05/06 06:57:09;;;;;;;14.32;8.68;;;;;;;13.03;100.00;100905.53;5430177;25;95555;-80
2024/05/06 06:59:36;;;;;;;14.38;8.95;;;;;;;12.96;100.00;100888.28;5425069;25;94438;-80
2024/05/06 07:02:01;;;;;;;16.42;9.43;;;;;;;13.18;100.00;100910.03;5421067;25;94191;-79
2024/05/06 07:04:26;;;;;;;15.18;9.02;;;;;;;12.98;100.00;100867.91;5400916;25;96431;-81
2024/05/06 07:06:52;;;;;;;15.65;9.57;;;;;;;13.26;100.00;100908.78;5426252;25;93893;-80
2024/05/06 07:09:17;;;;;;;14.90;8.85;;;;;;;13.33;100.00;100918.94;5403171;25;94083;-81
2024/05/06 07:11:43;;;;;;;13.77;8.45;;;;;;;13.37;100.00;100919.66;5407177;25;95133;-82
2024/05/06 07:14:08;;;;;;;16.92;9.82;;;;;;;13.35;100.00;100903.88;5448930;25;95032;-79
2024/05/06 07:16:33;;;;;;;13.90;8.60;;;;;;;13.46;100.00;100929.75;5408577;25;93776;-79
2024/05/06 07:18:59;;;;;;;14.27;8.25;;;;;;;13.52;100.00;100932.06;5433035;25;93907;-79
2024/05/06 07:21:25;;;;;;;14.40;8.40;;;;;;;13.55;100.00;100926.59;5424364;25;104559;-79
2024/05/06 07:23:51;;;;;;;13.88;8.73;;;;;;;13.50;100.00;100920.72;5426227;25;94301;-79
2024/05/06 07:26:17;;;;;;;12.77;8.13;;;;;;;13.58;100.00;100930.91;5392169;25;93837;-79
2024/05/06 07:28:42;;;;;;;14.43;8.60;;;;;;;13.62;100.00;100925.34;5390409;25;94849;-79
2024/05/06 07:31:08;;;;;;;13.98;8.25;;;;;;;13.54;100.00;100889.66;5422994;25;111681;-79
2024/05/06 07:33:33;;;;;;;14.82;9.23;;;;;;;13.79;100.00;100918.28;5423116;25;94841;-79
2024/05/06 07:35:59;;;;;;;13.80;8.48;;;;;;;13.90;100.00;100922.03;5393723;25;93836;-79
2024/05/06 07:38:27;;;;;;;13.95;8.48;;;;;;;13.98;100.00;100918.97;5419963;25;93941;-79
2024/05/06 07:40:53;;;;;;;15.23;8.60;;;;;;;13.96;100.00;100899.69;5394133;25;94821;-79
2024/05/06 07:43:18;;;;;;;14.52;9.05;;;;;;;14.22;100.00;100926.50;5389950;25;94711;-79
2024/05/06 07:45:44;;;;;;;14.15;8.63;;;;;;;14.09;100.00;100879.53;5423548;25;93851;-80
2024/05/06 07:48:10;;;;;;;12.95;8.20;;;;;;;14.27;100.00;100893.53;5426423;25;93799;-79
2024/05/06 07:50:36;;;;;;;15.45;8.95;;;;;;;14.48;100.00;100912.63;5394756;25;94407;-80
2024/05/06 07:53:01;;;;;;;13.60;8.98;;;;;;;14.44;100.00;100881.94;5428228;25;95844;-79
2024/05/06 07:55:26;;;;;;;13.25;8.02;;;;;;;14.72;100.00;100910.41;5385993;26;93917;-79
2024/05/06 07:57:52;;;;;;;12.52;6.97;;;;;;;14.87;100.00;100906.84;5384567;26;93882;-80
2024/05/06 08:00:19;;;;;;;13.40;8.45;;;;;;;15.04;100.00;100902.31;5384754;26;96695;-80
2024/05/06 08:02:44;;;;;;;17.25;9.10;;;;;;;15.25;100.00;100905.47;5380584;26;95640;-79
2024/05/06 08:05:09;;;;;;;12.63;7.65;;;;;;;15.33;100.00;100887.28;5389975;26;94075;-79
2024/05/06 08:07:35;;;;;;;13.98;7.35;;;;;;;15.60;100.00;100906.81;5389601;26;93952;-80
2024/05/06 08:10:02;;;;;;;17.23;8.57;;;;;;;15.73;100.00;100898.97;5386912;26;94426;-80
2024/05/06 08:12:28;;;;;;;12.02;7.68;;;;;;;15.88;100.00;100909.56;5388491;26;94951;-80
2024/05/06 08:14:53;;;;;;;11.63;7.75;;;;;;;15.99;100.00;100915.91;5389679;26;107592;-80
2024/05/06 08:17:18;;;;;;;12.88;7.60;;;;;;;16.00;100.00;100908.78;5389438;26;109117;-79
2024/05/06 08:19:44;;;;;;;12.75;7.45;;;;;;;16.09;100.00;100909.03;5385838;26;96663;-79
2024/05/06 08:22:10;;;;;;;12.13;7.07;;;;;;;16.19;100.00;100905.81;5386861;26;95013;-79
2024/05/06 08:24:35;;;;;;;11.98;6.88;;;;;;;16.27;100.00;100901.69;5381752;26;95241;-79
2024/05/06 08:27:00;;;;;;;11.70;6.78;;;;;;;16.22;100.00;100892.28;5386873;25;94049;-80
2024/05/06 08:29:26;;;;;;;12.73;7.38;;;;;;;16.28;100.00;100881.28;5387497;26;107165;-79
2024/05/06 08:31:51;;;;;;;11.10;6.80;;;;;;;16.39;100.00;100885.91;5385076;26;114638;-80
2024/05/06 08:34:16;;;;;;;9.95;5.90;;;;;;;16.59;100.00;100906.69;5389753;26;93777;-79
2024/05/06 08:36:42;;;;;;;10.18;5.78;;;;;;;16.48;100.00;100883.47;5388950;26;93845;-80
2024/05/06 08:39:07;;;;;;;9.95;6.35;;;;;;;16.58;100.00;100883.72;5387811;26;94373;-80
2024/05/06 08:41:33;;;;;;;11.75;7.47;;;;;;;16.73;100.00;100892.47;5389701;26;95778;-80
2024/05/06 08:43:59;;;;;;;10.93;6.10;;;;;;;16.80;100.00;100899.13;5391045;26;93791;-78
2024/05/06 08:46:26;;;;;;;10.48;6.35;;;;;;;16.77;100.00;100902.81;5386893;26;94835;-79
2024/05/06 08:48:56;;;;;;;10.07;6.25;;;;;;;16.82;100.00;100897.19;5387104;26;94376;-79
2024/05/06 08:51:23;;;;;;;13.90;7.25;;;;;;;16.87;100.00;100894.22;5389341;26;94647;-79
2024/05/06 08:53:49;;;;;;;8.88;5.70;;;;;;;16.94;100.00;100904.31;5385966;26;94025;-79
2024/05/06 08:56:17;;;;;;;11.18;6.38;;;;;;;16.90;100.00;100900.19;5416155;25;94995;-79
2024/05/06 08:58:44;;;;;;;16.10;6.20;;;;;;;16.91;100.00;100906.34;5422761;25;94513;-79
2024/05/06 09:01:11;;;;;;;6.88;5.10;;;;;;;16.90;100.00;100899.34;5429643;25;95863;-80
2024/05/06 09:03:36;;;;;;;10.88;6.20;;;;;;;17.05;100.00;100899.13;5423409;25;93784;-78
2024/05/06 09:06:01;;;;;;;9.27;5.72;;;;;;;17.04;100.00;100885.94;5425441;25;94353;-78
2024/05/06 09:08:27;;;;;;;9.13;5.68;;;;;;;17.30;100.00;100905.44;5421974;25;94744;-78
2024/05/06 09:10:58;;;;;;;10.20;5.40;;;;;;;17.31;100.00;100907.97;5393705;25;96207;-79
2024/05/06 09:13:24;;;;;;;8.52;5.47;;;;;;;17.39;100.00;100898.63;5388934;25;94080;-78
2024/05/06 09:15:58;;;;;;;8.65;5.20;;;;;;;17.47;100.00;100893.59;5422445;25;93942;-79
2024/05/06 09:18:24;;;;;;;10.38;6.07;;;;;;;17.58;100.00;100915.00;5422960;25;94900;-79
2024/05/06 09:21:01;;;;;;;11.35;6.63;;;;;;;17.48;100.00;100884.66;5384724;25;96351;-79
2024/05/06 09:23:26;;;;;;;8.40;5.63;;;;;;;17.49;100.00;100868.59;5395974;25;93796;-79
2024/05/06 09:25:52;;;;;;;9.13;5.20;;;;;;;17.73;100.00;100910.41;5394765;25;93923;-80
2024/05/06 09:28:17;;;;;;;9.52;5.65;;;;;;;17.80;100.00;100909.88;5395042;25;96514;-80
2024/05/06 09:30:49;;;;;;;10.57;5.90;;;;;;;17.80;100.00;100901.03;5397555;25;96413;-80
2024/05/06 09:33:21;;;;;;;11.75;6.68;;;;;;;17.85;100.00;100898.91;5424440;25;93804;-80
2024/05/06 09:35:47;;;;;;;12.25;6.20;;;;;;;17.98;100.00;100913.00;5390463;25;93987;-79
2024/05/06 09:38:16;;;;;;;9.55;5.93;;;;;;;18.08;100.00;100913.22;5425364;25;95599;-80
2024/05/06 09:40:48;;;;;;;11.77;6.28;;;;;;;18.26;100.00;100917.22;5394883;25;94767;-80
2024/05/06 09:43:16;;;;;;;10.93;6.32;;;;;;;18.24;100.00;100899.63;5424552;25;93819;-80
2024/05/06 09:45:42;;;;;;;10.35;6.28;;;;;;;18.26;100.00;100895.03;5395491;25;93942;-80
2024/05/06 09:48:08;;;;;;;10.55;5.57;;;;;;;18.44;100.00;100916.78;5391139;25;97559;-80
2024/05/06 09:50:35;;;;;;;10.55;5.47;;;;;;;18.48;100.00;100928.94;5392238;25;94684;-80
2024/05/06 09:53:02;;;;;;;12.75;6.80;;;;;;;18.36;100.00;100914.69;5422287;25;93801;-80
2024/05/06 09:55:27;;;;;;;7.80;4.90;;;;;;;18.52;100.00;100927.75;5424460;25;94668;-80
2024/05/06 09:57:55;;;;;;;10.75;5.35;;;;;;;18.58;100.00;100923.78;5422488;25;94150;-80
2024/05/06 10:00:21;;;;;;;8.88;4.68;;;;;;;18.44;100.00;100898.13;5424334;25;94398;-80
2024/05/06 10:02:50;;;;;;;10.07;5.88;;;;;;;18.47;100.00;100901.41;5425154;25;93920;-80
2024/05/06 10:05:15;;;;;;;10.75;5.97;;;;;;;18.62;100.00;100922.59;5419256;25;93968;-80
2024/05/06 10:07:41;;;;;;;8.70;5.60;;;;;;;18.67;100.00;100936.41;5423772;25;94742;-79
2024/05/06 10:10:07;;;;;;;8.85;5.38;;;;;;;18.74;100.00;100940.34;5387660;25;94342;-80
2024/05/06 10:12:37;;;;;;;8.73;4.63;;;;;;;18.66;100.00;100924.91;5392300;25;94498;-80
2024/05/06 10:15:04;;;;;;;7.90;4.82;;;;;;;18.87;100.00;100945.63;5391575;25;94510;-80
2024/05/06 10:17:56;;;;;;;7.78;5.15;;;;;;;18.86;100.00;100938.59;5389703;25;97190;-80
2024/05/06 10:20:22;;;;;;;8.15;4.88;;;;;;;18.72;100.00;100911.16;5416642;25;94864;-79
2024/05/06 10:22:55;;;;;;;9.73;5.68;;;;;;;18.78;100.00;100921.34;5422664;25;93777;-80
2024/05/06 10:25:21;;;;;;;9.65;5.78;;;;;;;18.71;100.00;100924.59;5421984;25;93899;-80
2024/05/06 10:27:52;;;;;;;8.88;5.25;;;;;;;18.62;100.00;100895.91;5389944;25;94516;-80
2024/05/06 10:30:19;;;;;;;7.47;4.60;;;;;;;18.68;100.00;100900.78;5388601;25;96646;-80
2024/05/06 10:32:45;;;;;;;9.27;5.82;;;;;;;18.89;100.00;100930.34;5394165;25;93902;-81
2024/05/06 10:35:15;;;;;;;8.63;5.40;;;;;;;18.96;100.00;100945.78;5424518;25;94415;-81
2024/05/06 10:37:41;;;;;;;9.85;5.22;;;;;;;19.09;100.00;100939.50;5422890;25;94387;-78
2024/05/06 10:40:11;;;;;;;7.75;4.93;;;;;;;19.12;100.00;100921.44;5422873;25;96487;-78
2024/05/06 10:42:37;;;;;;;10.40;5.40;;;;;;;19.27;100.00;100935.44;5422779;25;93819;-79
2024/05/06 10:45:09;;;;;;;7.60;4.40;;;;;;;19.37;100.00;100943.56;5421788;25;93780;-79
2024/05/06 10:47:34;;;;;;;7.55;4.43;;;;;;;19.31;100.00;100936.88;5394861;25;94693;-79
2024/05/06 10:50:00;;;;;;;11.55;5.32;;;;;;;19.19;100.00;100909.31;5389077;25;108388;-78
2024/05/06 10:52:27;;;;;;;8.75;4.47;;;;;;;19.40;100.00;100932.63;5390765;25;94719;-78
2024/05/06 10:54:55;;;;;;;7.40;4.65;;;;;;;19.34;100.00;100925.97;5422050;25;94422;-78
2024/05/06 10:57:21;;;;;;;8.38;4.97;;;;;;;19.47;100.00;100932.03;5422481;25;94476;-78
2024/05/06 10:59:47;;;;;;;7.95;5.22;;;;;;;19.59;100.00;100940.91;5422385;25;94652;-79
2024/05/06 11:02:13;;;;;;;7.07;4.70;;;;;;;19.54;100.00;100919.06;5422281;25;94677;-78
2024/05/06 11:04:40;;;;;;;7.65;4.55;;;;;;;19.58;100.00;100920.53;5422818;25;94743;-79
2024/05/06 11:07:05;;;;;;;9.38;4.95;;;;;;;19.78;100.00;100937.66;5424094;25;94979;-78
2024/05/06 11:09:45;;;;;;;8.50;5.22;;;;;;;19.88;96.92;100944.00;5423118;25;94787;-78